createdAt,value
2022-09-11T00:01:23.324Z,101173.88
2022-09-11T00:03:50.441Z,101179.91
2022-09-11T00:06:28.817Z,101187.69
2022-09-11T00:09:00.976Z,101181.47
2022-09-11T00:11:32.961Z,101182.31
2022-09-11T00:14:00.450Z,101183.19
2022-09-11T00:16:34.970Z,101178.84
2022-09-11T00:19:12.987Z,101183.19
2022-09-11T00:21:39.872Z,101187.59
2022-09-11T00:24:09.860Z,101191.13
2022-09-11T00:26:38.131Z,101198.16
2022-09-11T00:29:05.218Z,101189.38
2022-09-11T00:31:32.701Z,101190.31
2022-09-11T00:34:00.073Z,101185.94
2022-09-11T00:36:31.900Z,101181.63
2022-09-11T00:38:59.796Z,101187.78
2022-09-11T00:41:38.856Z,101180.81
2022-09-11T00:44:15.978Z,101185.31
2022-09-11T00:47:00.196Z,101188.03
2022-09-11T00:49:46.362Z,101180.19
2022-09-11T00:52:19.731Z,101179.34
2022-09-11T00:55:03.860Z,101177.63
2022-09-11T00:57:36.812Z,101177.63
2022-09-11T01:00:08.526Z,101170.72
2022-09-11T01:02:38.617Z,101169.13
2022-09-11T01:05:07.397Z,101181.44
2022-09-11T01:07:36.284Z,101185.06
2022-09-11T01:10:06.671Z,101185.25
2022-09-11T01:12:48.825Z,101185.28
2022-09-11T01:15:30.903Z,101191.50
2022-09-11T01:18:18.264Z,101187.22
2022-09-11T01:20:55.895Z,101195.94
2022-09-11T01:24:09.052Z,101202.88
2022-09-11T01:27:24.781Z,101203.69
2022-09-11T01:30:02.150Z,101201.97
2022-09-11T01:32:44.761Z,101206.31
2022-09-11T01:35:27.214Z,101210.72
2022-09-11T01:38:05.896Z,101212.44
2022-09-11T01:40:46.515Z,101209.00
2022-09-11T01:43:21.147Z,101213.41
2022-09-11T01:45:51.531Z,101219.53
2022-09-11T01:48:25.688Z,101225.72
2022-09-11T01:50:55.981Z,101219.59
2022-09-11T01:53:30.948Z,101221.34
2022-09-11T01:56:08.091Z,101220.38
2022-09-11T01:58:38.500Z,101215.06
2022-09-11T02:01:20.930Z,101218.41
2022-09-11T02:04:00.564Z,101224.47
2022-09-11T02:06:59.511Z,101220.88
2022-09-11T02:09:38.363Z,101217.31
2022-09-11T02:12:10.780Z,101207.63
2022-09-11T02:14:42.312Z,101211.91
2022-09-11T02:17:27.756Z,101213.63
2022-09-11T02:19:59.663Z,101219.69
2022-09-11T02:22:27.412Z,101213.47
2022-09-11T02:24:55.259Z,101217.72
2022-09-11T02:27:25.896Z,101220.28
2022-09-11T02:29:53.874Z,101224.63
2022-09-11T02:32:22.479Z,101225.53
2022-09-11T02:34:51.148Z,101214.28
2022-09-11T02:37:46.280Z,101217.91
2022-09-11T02:40:50.668Z,101216.28
2022-09-11T02:43:38.907Z,101211.91
2022-09-11T02:46:46.648Z,101212.78
2022-09-11T02:50:02.149Z,101214.47
2022-09-11T02:52:45.274Z,101212.56
2022-09-11T02:55:31.059Z,101209.81
2022-09-11T02:58:10.303Z,101216.72
2022-09-11T03:00:39.866Z,101216.59
2022-09-11T03:03:07.479Z,101217.38
2022-09-11T03:05:37.127Z,101208.53
2022-09-11T03:08:04.351Z,101218.13
2022-09-11T03:10:31.598Z,101218.03
2022-09-11T03:12:59.699Z,101221.44
2022-09-11T03:15:27.438Z,101211.81
2022-09-11T03:17:54.329Z,101223.06
2022-09-11T03:20:21.995Z,101219.53
2022-09-11T03:22:48.925Z,101218.59
2022-09-11T03:25:16.079Z,101224.72
2022-09-11T03:27:43.742Z,101222.06
2022-09-11T03:30:13.227Z,101227.31
2022-09-11T03:32:40.123Z,101234.28
2022-09-11T03:35:08.440Z,101230.72
2022-09-11T03:37:37.352Z,101231.56
2022-09-11T03:40:05.110Z,101228.91
2022-09-11T03:42:33.352Z,101234.16
2022-09-11T03:45:00.331Z,101238.59
2022-09-11T03:47:27.232Z,101230.69
2022-09-11T03:49:55.974Z,101236.91
2022-09-11T03:52:23.096Z,101237.91
2022-09-11T03:54:50.834Z,101246.81
2022-09-11T03:57:17.842Z,101239.78
2022-09-11T03:59:44.920Z,101242.50
2022-09-11T04:02:11.905Z,101246.00
2022-09-11T04:04:40.083Z,101239.88
2022-09-11T04:07:07.124Z,101242.63
2022-09-11T04:09:34.542Z,101234.88
2022-09-11T04:12:02.870Z,101235.81
2022-09-11T04:14:29.765Z,101237.66
2022-09-11T04:16:59.340Z,101232.31
2022-09-11T04:19:29.395Z,101230.53
2022-09-11T04:21:56.560Z,101239.31
2022-09-11T04:24:23.524Z,101234.09
2022-09-11T04:26:50.400Z,101238.56
2022-09-11T04:29:24.222Z,101240.38
2022-09-11T04:31:52.924Z,101242.09
2022-09-11T04:34:20.952Z,101232.41
2022-09-11T04:36:48.031Z,101242.78
2022-09-11T04:39:19.910Z,101241.81
2022-09-11T04:41:48.904Z,101247.00
2022-09-11T04:44:16.543Z,101244.28
2022-09-11T04:46:45.213Z,101240.66
2022-09-11T04:49:12.513Z,101243.25
2022-09-11T04:51:40.519Z,101247.59
2022-09-11T04:54:15.671Z,101244.03
2022-09-11T04:56:42.797Z,101233.63
2022-09-11T04:59:20.343Z,101257.19
2022-09-11T05:01:54.494Z,101253.66
2022-09-11T05:04:26.026Z,101254.50
2022-09-11T05:06:54.825Z,101264.97
2022-09-11T05:09:22.435Z,101265.75
2022-09-11T05:11:50.401Z,101264.81
2022-09-11T05:14:18.378Z,101264.81
2022-09-11T05:16:47.547Z,101260.31
2022-09-11T05:19:16.726Z,101263.81
2022-09-11T05:21:45.496Z,101265.59
2022-09-11T05:24:12.388Z,101273.44
2022-09-11T05:26:40.868Z,101284.91
2022-09-11T05:29:14.198Z,101290.13
2022-09-11T05:32:02.997Z,101283.13
2022-09-11T05:34:30.182Z,101285.00
2022-09-11T05:36:58.535Z,101286.78
2022-09-11T05:39:28.743Z,101295.53
2022-09-11T05:41:56.637Z,101294.59
2022-09-11T05:44:30.959Z,101295.47
2022-09-11T05:46:58.514Z,101302.44
2022-09-11T05:49:25.726Z,101299.75
2022-09-11T05:51:52.787Z,101303.28
2022-09-11T05:54:19.704Z,101296.47
2022-09-11T05:56:47.283Z,101316.75
2022-09-11T05:59:21.782Z,101316.91
2022-09-11T06:01:50.414Z,101320.53
2022-09-11T06:04:36.495Z,101324.94
2022-09-11T06:07:03.771Z,101332.81
2022-09-11T06:09:31.992Z,101324.09
2022-09-11T06:11:58.866Z,101330.22
2022-09-11T06:14:26.745Z,101325.91
2022-09-11T06:16:56.970Z,101331.28
2022-09-11T06:19:25.346Z,101339.31
2022-09-11T06:21:52.223Z,101345.63
2022-09-11T06:24:29.806Z,101343.03
2022-09-11T06:26:57.387Z,101348.31
2022-09-11T06:29:26.547Z,101354.50
2022-09-11T06:31:54.303Z,101356.22
2022-09-11T06:34:24.333Z,101350.16
2022-09-11T06:36:52.595Z,101345.69
2022-09-11T06:39:22.761Z,101351.72
2022-09-11T06:41:50.325Z,101353.28
2022-09-11T06:44:18.669Z,101355.69
2022-09-11T06:46:47.826Z,101361.66
2022-09-11T06:49:14.903Z,101356.19
2022-09-11T06:52:10.815Z,101362.16
2022-09-11T06:54:39.767Z,101345.41
2022-09-11T06:57:11.396Z,101360.09
2022-09-11T06:59:38.281Z,101358.25
2022-09-11T07:02:05.681Z,101360.88
2022-09-11T07:04:32.656Z,101351.97
2022-09-11T07:06:59.747Z,101365.00
2022-09-11T07:09:26.648Z,101353.41
2022-09-11T07:11:57.039Z,101346.38
2022-09-11T07:14:26.348Z,101359.31
2022-09-11T07:17:01.357Z,101359.19
2022-09-11T07:19:28.420Z,101368.91
2022-09-11T07:21:55.390Z,101358.41
2022-09-11T07:24:25.184Z,101362.75
2022-09-11T07:26:52.130Z,101364.56
2022-09-11T07:29:28.451Z,101361.06
2022-09-11T07:31:57.866Z,101376.72
2022-09-11T07:34:25.242Z,101369.50
2022-09-11T07:36:52.945Z,101373.66
2022-09-11T07:39:23.178Z,101375.22
2022-09-11T07:41:56.364Z,101369.91
2022-09-11T07:44:27.872Z,101367.00
2022-09-11T07:46:55.869Z,101361.47
2022-09-11T07:49:24.486Z,101363.97
2022-09-11T07:51:52.390Z,101368.13
2022-09-11T07:54:28.993Z,101365.28
2022-09-11T07:56:57.948Z,101377.44
2022-09-11T07:59:24.956Z,101367.53
2022-09-11T08:01:53.334Z,101381.41
2022-09-11T08:04:21.004Z,101379.47
2022-09-11T08:06:48.194Z,101377.56
2022-09-11T08:09:22.115Z,101383.63
2022-09-11T08:11:58.438Z,101389.78
2022-09-11T08:14:27.382Z,101389.16
2022-09-11T08:16:57.764Z,101395.44
2022-09-11T08:19:27.641Z,101392.69
2022-09-11T08:21:56.676Z,101411.09
2022-09-11T08:24:24.452Z,101406.41
2022-09-11T08:26:57.080Z,101396.53
2022-09-11T08:29:25.804Z,101412.94
2022-09-11T08:31:53.175Z,101413.56
2022-09-11T08:34:22.209Z,101408.97
2022-09-11T08:36:52.045Z,101404.66
2022-09-11T08:39:19.283Z,101414.56
2022-09-11T08:41:56.460Z,101414.03
2022-09-11T08:44:51.465Z,101411.66
2022-09-11T08:47:29.090Z,101410.09
2022-09-11T08:50:08.301Z,101416.34
2022-09-11T08:52:36.763Z,101424.00
2022-09-11T08:55:14.142Z,101416.69
2022-09-11T08:58:29.881Z,101419.91
2022-09-11T09:01:23.279Z,101413.72
2022-09-11T09:04:31.124Z,101408.34
2022-09-11T09:07:35.916Z,101416.88
2022-09-11T09:10:45.418Z,101413.88
2022-09-11T09:13:47.106Z,101408.50
2022-09-11T09:16:55.104Z,101421.88
2022-09-11T09:19:31.657Z,101416.31
2022-09-11T09:22:14.278Z,101414.97
2022-09-11T09:24:55.212Z,101404.91
2022-09-11T09:27:46.663Z,101412.41
2022-09-11T09:30:27.280Z,101413.56
2022-09-11T09:33:25.871Z,101416.75
2022-09-11T09:35:54.368Z,101416.47
2022-09-11T09:38:29.057Z,101412.72
2022-09-11T09:41:43.630Z,101424.97
2022-09-11T09:44:33.184Z,101418.63
2022-09-11T09:47:00.127Z,101422.97
2022-09-11T09:49:33.395Z,101420.34
2022-09-11T09:52:14.078Z,101424.84
2022-09-11T09:54:41.019Z,101424.84
2022-09-11T09:57:11.651Z,101422.03
2022-09-11T09:59:47.940Z,101416.66
2022-09-11T10:02:58.044Z,101420.88
2022-09-11T10:05:41.620Z,101424.41
2022-09-11T10:08:31.742Z,101425.25
2022-09-11T10:11:02.185Z,101424.16
2022-09-11T10:13:36.384Z,101414.22
2022-09-11T10:16:05.836Z,101417.44
2022-09-11T10:18:36.099Z,101430.16
2022-09-11T10:21:12.011Z,101424.44
2022-09-11T10:23:56.719Z,101429.44
2022-09-11T10:26:45.883Z,101420.22
2022-09-11T10:29:30.221Z,101427.72
2022-09-11T10:32:02.679Z,101428.34
2022-09-11T10:34:38.112Z,101413.16
2022-09-11T10:37:14.073Z,101427.13
2022-09-11T10:39:44.395Z,101427.09
2022-09-11T10:42:23.076Z,101437.72
2022-09-11T10:44:52.383Z,101434.25
2022-09-11T10:47:29.100Z,101445.16
2022-09-11T10:50:18.521Z,101447.31
2022-09-11T10:53:17.218Z,101452.16
2022-09-11T10:55:58.161Z,101452.72
2022-09-11T10:58:33.393Z,101458.44
2022-09-11T11:01:01.039Z,101450.88
2022-09-11T11:03:29.055Z,101459.09
2022-09-11T11:06:54.088Z,101460.44
2022-09-11T11:10:01.448Z,101448.31
2022-09-11T11:13:15.643Z,101450.31
2022-09-11T11:16:16.502Z,101452.03
2022-09-11T11:19:07.636Z,101455.63
2022-09-11T11:22:13.481Z,101460.06
2022-09-11T11:25:05.182Z,101461.78
2022-09-11T11:28:11.724Z,101461.75
2022-09-11T11:31:00.896Z,101456.44
2022-09-11T11:34:17.025Z,101462.50
2022-09-11T11:37:24.020Z,101454.59
2022-09-11T11:40:27.379Z,101457.09
2022-09-11T11:43:10.469Z,101460.53
2022-09-11T11:45:47.276Z,101462.22
2022-09-11T11:48:21.994Z,101463.94
2022-09-11T11:51:06.964Z,101468.31
2022-09-11T11:53:49.018Z,101463.81
2022-09-11T11:56:40.828Z,101470.94
2022-09-11T11:59:31.194Z,101471.16
2022-09-11T12:02:22.571Z,101471.59
2022-09-11T12:04:56.151Z,101477.06
2022-09-11T12:07:27.648Z,101469.09
2022-09-11T12:09:57.381Z,101467.06
2022-09-11T12:12:28.060Z,101475.53
2022-09-11T12:15:03.732Z,101464.66
2022-09-11T12:17:33.828Z,101466.81
2022-09-11T12:20:09.694Z,101479.78
2022-09-11T12:22:50.316Z,101469.75
2022-09-11T12:25:20.054Z,101480.09
2022-09-11T12:27:48.746Z,101474.53
2022-09-11T12:30:18.251Z,101470.91
2022-09-11T12:33:02.226Z,101467.00
2022-09-11T12:35:45.210Z,101474.44
2022-09-11T12:38:36.273Z,101471.88
2022-09-11T12:41:13.504Z,101461.31
2022-09-11T12:43:41.333Z,101462.38
2022-09-11T12:46:22.051Z,101465.00
2022-09-11T12:49:20.642Z,101464.97
2022-09-11T12:51:54.506Z,101462.53
2022-09-11T12:54:40.661Z,101455.69
2022-09-11T12:57:25.668Z,101451.03
2022-09-11T12:59:59.379Z,101444.34
2022-09-11T13:02:42.905Z,101449.81
2022-09-11T13:05:38.444Z,101447.94
2022-09-11T13:08:20.319Z,101444.78
2022-09-11T13:10:47.187Z,101453.13
2022-09-11T13:13:34.701Z,101454.22
2022-09-11T13:16:25.490Z,101461.66
2022-09-11T13:19:10.180Z,101464.97
2022-09-11T13:21:40.678Z,101466.53
2022-09-11T13:24:31.880Z,101459.38
2022-09-11T13:27:26.505Z,101458.13
2022-09-11T13:29:56.357Z,101466.13
2022-09-11T13:32:23.710Z,101460.00
2022-09-11T13:35:01.835Z,101458.25
2022-09-11T13:38:02.633Z,101452.06
2022-09-11T13:40:41.428Z,101457.56
2022-09-11T13:43:13.182Z,101458.47
2022-09-11T13:45:41.169Z,101461.16
2022-09-11T13:48:22.898Z,101459.69
2022-09-11T13:50:50.997Z,101467.97
2022-09-11T13:53:19.360Z,101458.66
2022-09-11T13:55:48.542Z,101453.47
2022-09-11T13:58:35.858Z,101462.47
2022-09-11T14:01:11.572Z,101456.28
2022-09-11T14:03:45.740Z,101461.50
2022-09-11T14:06:19.431Z,101463.28
2022-09-11T14:08:56.084Z,101469.47
2022-09-11T14:11:26.382Z,101465.94
2022-09-11T14:14:05.586Z,101469.41
2022-09-11T14:16:37.472Z,101468.28
2022-09-11T14:19:14.784Z,101458.44
2022-09-11T14:21:46.568Z,101461.06
2022-09-11T14:24:38.437Z,101458.63
2022-09-11T14:27:45.485Z,101463.00
2022-09-11T14:30:34.791Z,101470.03
2022-09-11T14:33:22.926Z,101471.78
2022-09-11T14:35:53.357Z,101471.78
2022-09-11T14:38:22.779Z,101471.03
2022-09-11T14:40:55.529Z,101459.69
2022-09-11T14:43:40.621Z,101469.44
2022-09-11T14:46:07.542Z,101461.59
2022-09-11T14:48:35.566Z,101463.38
2022-09-11T14:51:12.721Z,101465.22
2022-09-11T14:53:43.108Z,101464.34
2022-09-11T14:56:10.319Z,101459.91
2022-09-11T14:58:37.217Z,101459.78
2022-09-11T15:01:04.149Z,101457.78
2022-09-11T15:03:31.785Z,101459.44
2022-09-11T15:05:58.855Z,101460.25
2022-09-11T15:08:26.203Z,101461.06
2022-09-11T15:10:53.662Z,101459.78
2022-09-11T15:13:21.620Z,101461.41
2022-09-11T15:15:49.375Z,101466.50
2022-09-11T15:18:18.096Z,101464.34
2022-09-11T15:20:45.996Z,101461.31
2022-09-11T15:23:12.875Z,101471.50
2022-09-11T15:25:40.945Z,101466.88
2022-09-11T15:28:10.081Z,101474.66
2022-09-11T15:30:38.415Z,101471.75
2022-09-11T15:33:05.967Z,101467.97
2022-09-11T15:35:33.231Z,101466.84
2022-09-11T15:38:00.233Z,101468.19
2022-09-11T15:40:27.132Z,101460.19
2022-09-11T15:42:56.787Z,101467.13
2022-09-11T15:45:23.754Z,101472.22
2022-09-11T15:47:50.747Z,101468.63
2022-09-11T15:50:21.604Z,101465.22
2022-09-11T15:52:48.514Z,101472.53
2022-09-11T15:55:15.458Z,101471.09
2022-09-11T15:57:42.346Z,101472.25
2022-09-11T16:00:10.238Z,101470.75
2022-09-11T16:02:41.916Z,101472.78
2022-09-11T16:05:08.901Z,101475.75
2022-09-11T16:07:35.800Z,101480.09
2022-09-11T16:10:03.263Z,101477.53
2022-09-11T16:12:30.172Z,101474.09
2022-09-11T16:14:57.096Z,101469.72
2022-09-11T16:17:30.628Z,101451.44
2022-09-11T16:19:58.960Z,101470.53
2022-09-11T16:22:26.754Z,101470.47
2022-09-11T16:24:54.205Z,101475.84
2022-09-11T16:27:21.091Z,101471.44
2022-09-11T16:32:38.094Z,101466.25
2022-09-11T16:35:08.305Z,101472.44
2022-09-11T16:37:35.528Z,101472.53
2022-09-11T16:40:03.802Z,101474.38
2022-09-11T16:42:31.044Z,101461.31
2022-09-11T16:44:58.065Z,101461.44
2022-09-11T16:47:25.006Z,101464.22
2022-09-11T16:50:08.912Z,101466.09
2022-09-11T16:52:36.193Z,101467.06
2022-09-11T16:55:04.341Z,101462.75
2022-09-11T16:57:31.471Z,101468.91
2022-09-11T16:59:58.345Z,101465.50
2022-09-11T17:02:26.499Z,101472.00
2022-09-11T17:04:53.378Z,101478.44
2022-09-11T17:07:20.800Z,101480.34
2022-09-11T17:09:48.015Z,101487.56
2022-09-11T17:12:17.622Z,101483.34
2022-09-11T17:14:44.499Z,101481.72
2022-09-11T17:17:11.421Z,101468.69
2022-09-11T17:19:38.367Z,101482.72
2022-09-11T17:22:05.265Z,101480.22
2022-09-11T17:24:32.176Z,101485.50
2022-09-11T17:26:59.062Z,101490.00
2022-09-11T17:29:25.945Z,101476.97
2022-09-11T17:32:10.593Z,101487.66
2022-09-11T17:34:40.311Z,101493.03
2022-09-11T17:37:07.200Z,101494.09
2022-09-11T17:39:34.067Z,101495.22
2022-09-11T17:42:01.815Z,101504.03
2022-09-11T17:44:28.695Z,101499.66
2022-09-11T17:46:59.682Z,101508.56
2022-09-11T17:49:26.873Z,101506.00
2022-09-11T17:51:54.503Z,101508.81
2022-09-11T17:54:22.071Z,101510.63
2022-09-11T17:56:49.447Z,101505.50
2022-09-11T17:59:17.188Z,101505.69
2022-09-11T18:01:44.831Z,101507.59
2022-09-11T18:04:12.175Z,101505.19
2022-09-11T18:06:39.563Z,101501.94
2022-09-11T18:09:13.832Z,101504.78
2022-09-11T18:11:43.152Z,101502.22
2022-09-11T18:14:10.657Z,101509.28
2022-09-11T18:16:38.114Z,101496.16
2022-09-11T18:19:06.143Z,101499.88
2022-09-11T18:21:38.152Z,101505.34
2022-09-11T18:24:07.087Z,101504.03
2022-09-11T18:26:40.906Z,101510.38
2022-09-11T18:29:11.871Z,101516.66
2022-09-11T18:31:45.039Z,101502.66
2022-09-11T18:34:15.906Z,101509.66
2022-09-11T18:36:43.705Z,101510.53
2022-09-11T18:39:12.458Z,101508.75
2022-09-11T18:41:39.342Z,101505.34
2022-09-11T18:44:08.722Z,101515.88
2022-09-11T18:46:37.380Z,101515.03
2022-09-11T18:49:05.396Z,101515.09
2022-09-11T18:51:32.464Z,101517.75
2022-09-11T18:54:00.100Z,101515.19
2022-09-11T18:56:29.764Z,101524.88
2022-09-11T18:58:56.724Z,101522.31
2022-09-11T19:01:26.992Z,101527.63
2022-09-11T19:03:55.397Z,101523.25
2022-09-11T19:06:28.661Z,101529.47
2022-09-11T19:08:56.311Z,101533.97
2022-09-11T19:11:26.523Z,101532.25
2022-09-11T19:13:56.914Z,101528.81
2022-09-11T19:16:23.823Z,101528.81
2022-09-11T19:18:50.815Z,101526.25
2022-09-11T19:21:22.272Z,101524.53
2022-09-11T19:23:55.623Z,101538.56
2022-09-11T19:26:33.176Z,101535.03
2022-09-11T19:29:00.696Z,101546.50
2022-09-11T19:31:29.671Z,101535.06
2022-09-11T19:34:00.748Z,101538.56
2022-09-11T19:36:30.459Z,101538.56
2022-09-11T19:39:01.086Z,101540.38
2022-09-11T19:41:35.399Z,101548.28
2022-09-11T19:44:04.168Z,101548.28
2022-09-11T19:46:33.581Z,101543.88
2022-09-11T19:49:03.531Z,101544.78
2022-09-11T19:51:34.078Z,101538.66
2022-09-11T19:54:02.726Z,101545.69
2022-09-11T19:56:32.972Z,101547.47
2022-09-11T19:59:00.494Z,101548.41
2022-09-11T20:01:29.802Z,101546.69
2022-09-11T20:03:58.187Z,101547.63
2022-09-11T20:06:29.627Z,101548.59
2022-09-11T20:09:19.890Z,101551.28
2022-09-11T20:11:45.350Z,101543.53
2022-09-11T20:14:12.447Z,101548.81
2022-09-11T20:16:39.410Z,101551.56
2022-09-11T20:19:06.571Z,101549.84
2022-09-11T20:21:36.043Z,101543.78
2022-09-11T20:24:06.182Z,101541.19
2022-09-11T20:26:33.657Z,101546.47
2022-09-11T20:29:07.364Z,101541.25
2022-09-11T20:31:46.459Z,101548.34
2022-09-11T20:34:16.974Z,101543.16
2022-09-11T20:36:43.870Z,101549.38
2022-09-11T20:39:15.679Z,101542.38
2022-09-11T20:41:43.289Z,101548.59
2022-09-11T20:44:11.872Z,101543.34
2022-09-11T20:46:38.881Z,101553.94
2022-09-11T20:49:06.017Z,101553.09
2022-09-11T20:51:33.838Z,101554.03
2022-09-11T20:54:00.963Z,101552.28
2022-09-11T20:56:28.318Z,101557.56
2022-09-11T20:58:55.691Z,101553.16
2022-09-11T21:01:25.179Z,101559.34
2022-09-11T21:03:57.086Z,101558.47
2022-09-11T21:06:28.494Z,101551.44
2022-09-11T21:08:58.938Z,101554.09
2022-09-11T21:11:28.078Z,101554.97
2022-09-11T21:13:54.966Z,101553.22
2022-09-11T21:16:22.021Z,101560.25
2022-09-11T21:18:53.054Z,101564.59
2022-09-11T21:21:22.162Z,101561.09
2022-09-11T21:23:49.411Z,101564.66
2022-09-11T21:26:17.496Z,101571.69
2022-09-11T21:28:44.395Z,101572.56
2022-09-11T21:31:11.927Z,101567.28
2022-09-11T21:33:39.266Z,101570.78
2022-09-11T21:36:06.781Z,101567.28
2022-09-11T21:38:33.962Z,101569.00
2022-09-11T21:41:05.542Z,101565.50
2022-09-11T21:43:32.812Z,101566.38
2022-09-11T21:45:59.670Z,101569.00
2022-09-11T21:48:26.609Z,101559.34
2022-09-11T21:50:53.848Z,101561.06
2022-09-11T21:53:21.246Z,101561.06
2022-09-11T21:55:48.633Z,101561.97
2022-09-11T21:58:20.786Z,101554.06
2022-09-11T22:00:49.081Z,101545.34
2022-09-11T22:03:18.488Z,101558.50
2022-09-11T22:05:49.079Z,101567.22
2022-09-11T22:08:18.906Z,101562.88
2022-09-11T22:10:49.369Z,101566.38
2022-09-11T22:13:18.124Z,101549.72
2022-09-11T22:15:48.760Z,101564.66
2022-09-11T22:18:16.898Z,101559.38
2022-09-11T22:20:44.435Z,101561.16
2022-09-11T22:23:17.564Z,101563.78
2022-09-11T22:25:45.629Z,101561.16
2022-09-11T22:28:12.937Z,101557.66
2022-09-11T22:30:43.939Z,101567.31
2022-09-11T22:33:11.288Z,101568.19
2022-09-11T22:35:38.276Z,101563.78
2022-09-11T22:38:05.312Z,101567.28
2022-09-11T22:40:32.314Z,101562.91
2022-09-11T22:42:59.606Z,101567.28
2022-09-11T22:45:26.511Z,101563.75
2022-09-11T22:47:53.411Z,101564.59
2022-09-11T22:50:20.286Z,101560.25
2022-09-11T22:52:47.244Z,101561.09
2022-09-11T22:55:14.167Z,101551.44
2022-09-11T22:57:41.054Z,101556.69
2022-09-11T23:00:12.019Z,101555.84
2022-09-11T23:02:38.990Z,101554.06
2022-09-11T23:05:25.634Z,101548.84
2022-09-11T23:07:53.240Z,101546.22
2022-09-11T23:10:23.425Z,101549.75
2022-09-11T23:12:52.054Z,101560.28
2022-09-11T23:15:19.690Z,101553.28
2022-09-11T23:17:46.888Z,101547.13
2022-09-11T23:20:14.110Z,101545.38
2022-09-11T23:22:41.012Z,101542.75
2022-09-11T23:25:08.530Z,101548.94
2022-09-11T23:27:35.439Z,101546.25
2022-09-11T23:30:02.301Z,101549.75
2022-09-11T23:32:29.275Z,101540.13
2022-09-11T23:34:56.118Z,101538.34
2022-09-11T23:37:22.998Z,101545.38
2022-09-11T23:39:49.882Z,101541.03
2022-09-11T23:42:16.768Z,101544.56
2022-09-11T23:44:43.598Z,101540.22
2022-09-11T23:47:10.459Z,101543.75
2022-09-11T23:49:37.308Z,101547.25
2022-09-11T23:52:05.834Z,101545.53
2022-09-11T23:54:32.724Z,101552.56
2022-09-11T23:56:59.593Z,101539.44
2022-09-11T23:59:27.021Z,101537.72
